^^

Nearby METAR Reports

 

EGHH - Bournemouth Airp, United Kingdom
Distance from station: S 10mi, 17km
Updated: 10/12/2019 19:20
Mostly cloudy
Mostly cloudy
 Wind from WNW
Wind: WNW 20 mph , 31 km/h
Temperature: 10°C
Wind Chill: 7°C
Dew Point: 8°C
Humidity: 88%
Barometer: 1006 hPa
Clouds: Mostly cloudy
Visibility: 6 miles , 10 km
Cloud details: Partly cloudy 213 m
Mostly cloudy 823 m
2019/12/10 19:20 EGHH 101920Z 29017KT 9999 SCT007 BKN027 10/08 Q1006
EGDM - Boscombe Down, United Kingdom
Distance from station: N 16mi, 26km
Updated: 10/12/2019 18:50
Rain, Mostly cloudy
Rain, Mostly cloudy
 Wind from W
Wind: W 23 mph , 37 km/h, Gust: 35 mph , 56 km/h
Temperature: 10°C
Wind Chill: 6°C
Dew Point: 8°C
Humidity: 88%
Barometer: 1004 hPa
Summary: Rain
Clouds: Mostly cloudy
Visibility: 6 miles , 10 km
Cloud details: Partly cloudy 183 m
Mostly cloudy 1524 m
2019/12/10 18:50 EGDM 101850Z AUTO 27020G30KT 9999 RA SCT006/// BKN050/// 10/08 Q1004
 
EGVP - Middle Wallop, United Kingdom
Distance from station: NE 17mi, 27km
Updated: 10/12/2019 19:27
Light rain, Mostly cloudy
Light rain, Mostly cloudy
 Wind from W
Wind: W 17 mph , 28 km/h
Temperature: 10°C
Wind Chill: 7°C
Dew Point: 8°C
Humidity: 88%
Barometer: 1005 hPa
Summary: Light rain
Clouds: Mostly cloudy
Visibility: 6 miles , 10 km
Cloud details: Few Clouds 213 m
Partly cloudy 549 m
Mostly cloudy 1097 m
2019/12/10 19:27 EGVP 101927Z 26015KT 9999 -RA FEW007 SCT018 BKN036 10/08 Q1005 TEMPO SCT007 RMK WHT TEMPO GRN
EGHI - Southampton Wx C, United Kingdom
Distance from station: E 19mi, 31km
Updated: 10/12/2019 19:20
Rain, Mostly cloudy
Rain, Mostly cloudy
 Wind from WSW
Wind: WSW 22 mph , 35 km/h, Gust: 36 mph , 57 km/h
Temperature: 11°C
Dew Point: 9°C
Humidity: 88%
Barometer: 1005 hPa
Summary: Rain
Clouds: Mostly cloudy
Visibility: 4 miles , 7 km
Cloud details: Few Clouds 305 m
Mostly cloudy 762 m
2019/12/10 19:20 EGHI 101920Z 25019G31KT 200V290 7000 RA FEW010 BKN025 11/09 Q1005
 
EGDY - Yeovilton (navy), United Kingdom
Distance from station: W 36mi, 58km
Updated: 10/12/2019 19:21
Overcast
Overcast
 Wind from W
Wind: W 14 mph , 22 km/h
Temperature: 9°C
Wind Chill: 6°C
Dew Point: 6°C
Humidity: 82%
Barometer: 1006 hPa
Clouds: Overcast
Visibility: 6 miles , 10 km
Cloud details: Few Clouds 305 m
Partly cloudy 762 m
Overcast 1524 m
2019/12/10 19:21 EGDY 101921Z 26012KT 9999 FEW010 SCT025 OVC050 09/06 Q1006 NOSIG RMK BLU BLU
EGUO - Colerne Raf, United Kingdom
Distance from station: NNW 41mi, 66km
Updated: 14/02/2019 22:50
NOT Current
Clear
Clear
 Wind from ENE
Wind: ENE 1 mph , 2 km/h
Temperature: 1°C
Dew Point: 0°C
Humidity: 93%
Barometer: 1029 hPa
Summary: Clear
Visibility: greater than 7 miles , 10 km
2019/02/14 22:50 EGUO 142250Z 06001KT CAVOK 01/00 Q1029 BLU NOSIG
 
EGVO - Odiham Raf, United Kingdom
Distance from station: ENE 42mi, 68km
Updated: 10/12/2019 19:26
Rain drizzle, Mostly cloudy
Rain drizzle, Mostly cloudy
 Wind from SSW
Wind: SSW 30 mph , 48 km/h, Gust: 44 mph , 70 km/h
Temperature: 12°C
Dew Point: 11°C
Humidity: 94%
Barometer: 1003 hPa
Summary: Rain Drizzle
Clouds: Mostly cloudy
Visibility: 1 mile , 2 km
Cloud details: Mostly cloudy 213 m
Mostly cloudy 427 m
2019/12/10 19:26 EGVO 101926Z 21026G38KT 2000 RADZ BKN007 BKN014 12/11 Q1003 TEMPO +RA RMK YLO2 TEMPO YLO2
EGGD - Bristol/Lulsgate, United Kingdom
Distance from station: NW 50mi, 81km
Updated: 10/12/2019 19:20
Light rain, Thunderstorm
Light rain, Thunderstorm
 Wind from W
Wind: W 22 mph , 35 km/h
Temperature: 7°C
Wind Chill: 3°C
Dew Point: 6°C
Humidity: 93%
Barometer: 1005 hPa
Summary: Light rain
Clouds: Thunderstorm
Visibility: 6 miles , 10 km
Cloud details: Partly cloudy 610 m
Mostly cloudy 792 m
Mostly cloudy 914 m
2019/12/10 19:20 EGGD 101920Z AUTO 27019KT 9999 -RA SCT020/// BKN026/// BKN030/// //////TCU 07/06 Q1005